Time;durP1;ratioP1;P1;durP2;ratioP2;P2;SDS_P1;SDS_P2;PMS_P1;PMS_P2;Temp;Humidity;BMP_temperature;BMP_pressure;BME280_temperature;BME280_humidity;BME280_pressure;Samples;Min_cycle;Max_cycle;Signal;HPM_P1;HPM_P2
2021/12/31 00:02:02;;;;;;;;;;;;;;;12.83;100.00;101787.72;4984084;28;19968;-73
2021/12/31 00:04:27;;;;;;;;;;;;;;;12.75;100.00;101802.06;4983951;28;20296;-75
2021/12/31 00:06:53;;;;;;;;;;;;;;;12.68;100.00;101789.78;4984582;28;19976;-74
2021/12/31 00:09:18;;;;;;;;;;;;;;;12.74;100.00;101792.59;4980957;28;20023;-73
2021/12/31 00:11:43;;;;;;;;;;;;;;;12.80;100.00;101792.78;4983443;28;19926;-74
2021/12/31 00:14:08;;;;;;;;;;;;;;;12.86;100.00;101795.56;4982135;28;19959;-75
2021/12/31 00:16:34;;;;;;;;;;;;;;;12.87;100.00;101802.50;4982790;28;21383;-73
2021/12/31 00:18:59;;;;;;;;;;;;;;;12.79;100.00;101798.75;4985644;28;19936;-73
2021/12/31 00:21:24;;;;;;;;;;;;;;;12.86;100.00;101805.91;4986651;28;20641;-74
2021/12/31 00:23:50;;;;;;;;;;;;;;;12.82;100.00;101801.44;4986049;28;20024;-74
2021/12/31 00:26:15;;;;;;;;;;;;;;;12.90;100.00;101806.88;4985114;28;19977;-74
2021/12/31 00:28:40;;;;;;;;;;;;;;;12.87;100.00;101797.31;4984546;28;20020;-74
2021/12/31 00:31:06;;;;;;;;;;;;;;;12.89;100.00;101806.00;4982456;28;20010;-75
2021/12/31 00:33:31;;;;;;;;;;;;;;;12.96;99.19;101795.88;4986272;28;19930;-74
2021/12/31 00:35:56;;;;;;;;;;;;;;;12.97;99.32;101798.50;4987336;28;20063;-74
2021/12/31 00:38:22;;;;;;;;;;;;;;;13.11;98.10;101798.97;4987066;28;20377;-73
2021/12/31 00:40:47;;;;;;;;;;;;;;;13.06;99.56;101793.66;4986189;28;19922;-75
2021/12/31 00:43:12;;;;;;;;;;;;;;;12.94;100.00;101803.56;4986154;28;20708;-74
2021/12/31 00:45:40;;;;;;;;;;;;;;;12.93;100.00;101801.81;4986635;28;20004;-74
2021/12/31 00:48:06;;;;;;;;;;;;;;;12.96;100.00;101801.03;4988931;28;19926;-74
2021/12/31 00:50:32;;;;;;;;;;;;;;;12.87;100.00;101802.50;4984265;28;20320;-73
2021/12/31 00:52:57;;;;;;;;;;;;;;;12.88;100.00;101798.19;4985496;28;19936;-75
2021/12/31 00:55:22;;;;;;;;;;;;;;;12.94;100.00;101789.78;4986275;28;20458;-74
2021/12/31 00:57:49;;;;;;;;;;;;;;;12.84;100.00;101801.50;4986993;28;20284;-75
2021/12/31 01:00:15;;;;;;;;;;;;;;;12.87;99.16;101805.06;4984159;28;20031;-74
2021/12/31 01:02:43;;;;;;;;;;;;;;;12.89;100.00;101806.00;4987717;28;19924;-74
2021/12/31 01:05:08;;;;;;;;;;;;;;;12.87;99.55;101812.81;4981255;28;19926;-73
2021/12/31 01:07:34;;;;;;;;;;;;;;;13.00;98.83;101803.78;4985797;28;19933;-74
2021/12/31 01:10:01;;;;;;;;;;;;;;;12.92;98.84;101806.91;4986556;28;19935;-73
2021/12/31 01:12:26;;;;;;;;;;;;;;;12.91;98.80;101800.88;4986224;28;19948;-75
2021/12/31 01:17:35;;;;;;;;;;;;;;;12.84;99.10;101804.94;4985376;28;20313;-74
2021/12/31 01:20:01;;;;;;;;;;;;;;;12.87;99.05;101811.94;4987771;28;19929;-73
2021/12/31 01:22:30;;;;;;;;;;;;;;;12.78;100.00;101802.16;4984717;28;19925;-73
2021/12/31 01:24:55;;;;;;;;;;;;;;;12.88;99.68;101800.78;4984426;28;19925;-74
2021/12/31 01:27:21;;;;;;;;;;;;;;;12.90;99.63;101806.88;4986006;28;19918;-74
2021/12/31 01:29:46;;;;;;;;;;;;;;;13.05;98.50;101796.19;4986152;28;19936;-73
2021/12/31 01:32:12;;;;;;;;;;;;;;;12.81;99.12;101807.44;4987316;28;19930;-74
2021/12/31 01:34:37;;;;;;;;;;;;;;;12.97;98.45;101803.66;4985929;28;19929;-74
2021/12/31 01:37:03;;;;;;;;;;;;;;;12.88;98.37;101806.81;4985370;28;19926;-73
2021/12/31 01:39:28;;;;;;;;;;;;;;;12.78;99.30;101809.91;4979611;28;19965;-73
2021/12/31 01:41:57;;;;;;;;;;;;;;;12.75;99.69;101809.81;4986944;28;19985;-74
2021/12/31 01:44:23;;;;;;;;;;;;;;;12.89;98.73;101813.72;4986313;28;19932;-74
2021/12/31 01:46:52;;;;;;;;;;;;;;;12.75;99.65;101812.41;4985997;28;20592;-74
2021/12/31 01:49:20;;;;;;;;;;;;;;;12.77;99.12;101820.19;4986190;28;20416;-74
2021/12/31 01:51:45;;;;;;;;;;;;;;;12.85;97.92;101819.59;4989901;28;19925;-72
2021/12/31 01:54:11;;;;;;;;;;;;;;;12.79;98.99;101814.25;4984583;28;20278;-73
2021/12/31 01:56:36;;;;;;;;;;;;;;;12.73;98.95;101826.94;4989875;28;19929;-73
2021/12/31 01:59:02;;;;;;;;;;;;;;;12.75;99.64;101829.59;4989534;28;20087;-73
2021/12/31 02:01:28;;;;;;;;;;;;;;;12.82;98.53;101824.69;4986594;28;19937;-73
2021/12/31 02:03:53;;;;;;;;;;;;;;;12.75;99.35;101827.00;4984565;28;19925;-73
2021/12/31 02:06:19;;;;;;;;;;;;;;;12.72;99.72;101838.09;4985562;28;19963;-73
2021/12/31 02:08:44;;;;;;;;;;;;;;;12.76;98.74;101829.63;4984358;28;19926;-74
2021/12/31 02:11:09;;;;;;;;;;;;;;;12.73;98.81;101826.06;4985496;28;19965;-74
2021/12/31 02:13:35;;;;;;;;;;;;;;;12.71;98.52;101825.13;4980439;28;19929;-74
2021/12/31 02:16:00;;;;;;;;;;;;;;;12.67;98.83;101831.00;4985636;28;20290;-73
2021/12/31 02:18:29;;;;;;;;;;;;;;;12.78;99.15;101825.41;4983465;28;20296;-73
2021/12/31 02:20:55;;;;;;;;;;;;;;;12.92;97.75;101830.13;4985218;28;20409;-73
2021/12/31 02:23:27;;;;;;;;;;;;;;;12.77;98.54;101818.47;4987372;28;19969;-74
2021/12/31 02:25:53;;;;;;;;;;;;;;;12.76;98.03;101819.31;4985689;28;19933;-74
2021/12/31 02:28:19;;;;;;;;;;;;;;;12.75;98.41;101822.72;4986646;28;19918;-75
2021/12/31 02:30:45;;;;;;;;;;;;;;;12.70;98.96;101813.94;4984928;28;19926;-74
2021/12/31 02:33:10;;;;;;;;;;;;;;;12.73;98.01;101816.59;4985791;28;19932;-74
2021/12/31 02:35:36;;;;;;;;;;;;;;;12.83;98.56;101812.66;4983390;28;19948;-72
2021/12/31 02:38:03;;;;;;;;;;;;;;;12.68;98.40;101820.75;4985241;28;20381;-74
2021/12/31 02:40:28;;;;;;;;;;;;;;;12.76;98.38;101809.00;4985873;28;19933;-73
2021/12/31 02:42:54;;;;;;;;;;;;;;;12.68;98.22;101812.13;4984259;28;19926;-74
2021/12/31 02:45:21;;;;;;;;;;;;;;;12.65;97.96;101810.31;4983692;28;20002;-74
2021/12/31 02:47:47;;;;;;;;;;;;;;;12.73;98.76;101811.44;4978456;28;19925;-74
2021/12/31 02:50:13;;;;;;;;;;;;;;;12.66;98.77;101803.44;4983528;28;19928;-72
2021/12/31 02:52:39;;;;;;;;;;;;;;;12.66;98.54;101806.91;4984926;28;19984;-73
2021/12/31 02:55:04;;;;;;;;;;;;;;;12.69;98.72;101799.28;4983545;28;19933;-74
2021/12/31 02:57:30;;;;;;;;;;;;;;;12.67;98.99;101789.72;4983942;28;19949;-74
2021/12/31 02:59:55;;;;;;;;;;;;;;;12.69;98.21;101793.25;4986093;28;19921;-74
2021/12/31 03:02:24;;;;;;;;;;;;;;;12.63;98.73;101796.50;4983556;28;19918;-74
2021/12/31 03:04:51;;;;;;;;;;;;;;;12.66;98.22;101806.03;4984653;28;19926;-73
2021/12/31 03:07:18;;;;;;;;;;;;;;;12.65;98.57;101802.56;4982489;28;19926;-73
2021/12/31 03:09:46;;;;;;;;;;;;;;;12.68;97.84;101804.38;4984720;28;20002;-74
2021/12/31 03:12:13;;;;;;;;;;;;;;;12.65;98.34;101800.00;4984797;28;19976;-73
2021/12/31 03:14:39;;;;;;;;;;;;;;;12.66;97.42;101796.59;4985118;28;19929;-74
2021/12/31 03:17:06;;;;;;;;;;;;;;;12.64;98.44;101798.25;4981679;28;19926;-74
2021/12/31 03:19:31;;;;;;;;;;;;;;;12.66;98.24;101793.13;4983866;28;19930;-74
2021/12/31 03:21:56;;;;;;;;;;;;;;;12.64;98.51;101799.94;4977793;28;19925;-74
2021/12/31 03:24:22;;;;;;;;;;;;;;;12.70;97.79;101795.88;4984501;28;19928;-74
2021/12/31 03:26:47;;;;;;;;;;;;;;;12.57;98.31;101793.72;4985949;28;19976;-74
2021/12/31 03:29:12;;;;;;;;;;;;;;;12.59;97.80;101776.56;4984675;28;20393;-74
2021/12/31 03:31:37;;;;;;;;;;;;;;;12.67;97.65;101784.56;4981146;28;19930;-73
2021/12/31 03:34:03;;;;;;;;;;;;;;;12.62;97.06;101784.44;4983749;28;20419;-73
2021/12/31 03:36:28;;;;;;;;;;;;;;;12.58;97.40;101785.13;4981741;28;20376;-74
2021/12/31 03:38:53;;;;;;;;;;;;;;;12.60;97.34;101786.94;4983533;28;19948;-74
2021/12/31 03:41:20;;;;;;;;;;;;;;;12.54;97.14;101785.84;4983208;28;19922;-73
2021/12/31 03:43:45;;;;;;;;;;;;;;;12.65;96.79;101786.22;4983488;28;20401;-73
2021/12/31 03:46:10;;;;;;;;;;;;;;;12.59;96.72;101773.97;4983950;28;19922;-73
2021/12/31 03:48:36;;;;;;;;;;;;;;;12.52;97.25;101785.81;4983327;28;19929;-73
2021/12/31 03:51:01;;;;;;;;;;;;;;;12.57;97.34;101783.38;4983198;28;19934;-74
2021/12/31 03:53:26;;;;;;;;;;;;;;;12.52;97.64;101780.63;4979761;28;19918;-73
2021/12/31 03:55:51;;;;;;;;;;;;;;;12.60;96.81;101779.19;4981824;28;19926;-74
2021/12/31 03:58:17;;;;;;;;;;;;;;;12.52;97.09;101767.75;4978896;28;20016;-73
2021/12/31 04:00:42;;;;;;;;;;;;;;;12.59;96.68;101776.56;4981931;28;20258;-72
2021/12/31 04:03:09;;;;;;;;;;;;;;;12.49;97.50;101770.19;4984256;28;19941;-73
2021/12/31 04:05:35;;;;;;;;;;;;;;;12.52;97.39;101775.47;4995034;28;19976;-72
2021/12/31 04:08:01;;;;;;;;;;;;;;;12.50;97.25;101779.72;4982977;28;19918;-73
2021/12/31 04:10:28;;;;;;;;;;;;;;;12.53;97.16;101778.94;4983616;28;20266;-73
2021/12/31 04:12:53;;;;;;;;;;;;;;;12.52;97.05;101780.63;4986186;28;19972;-73
2021/12/31 04:15:19;;;;;;;;;;;;;;;12.51;97.06;101768.56;4983651;28;19930;-73
2021/12/31 04:17:44;;;;;;;;;;;;;;;12.44;97.58;101773.47;4983642;28;20028;-73
2021/12/31 04:20:21;;;;;;;;;;;;;;;12.49;97.45;101775.34;4984330;28;19926;-74
2021/12/31 04:22:53;;;;;;;;;;;;;;;12.54;97.36;101780.69;4984382;28;19917;-74
2021/12/31 04:25:18;;;;;;;;;;;;;;;12.48;97.31;101773.59;4983152;28;19918;-74
2021/12/31 04:27:44;;;;;;;;;;;;;;;12.48;97.16;101770.16;4983906;28;19953;-74
2021/12/31 04:30:09;;;;;;;;;;;;;;;12.50;97.56;101781.44;4983331;28;19928;-73
2021/12/31 04:32:35;;;;;;;;;;;;;;;12.54;96.89;101767.78;4979064;28;19929;-74
2021/12/31 04:35:00;;;;;;;;;;;;;;;12.53;97.17;101768.63;4984527;28;19936;-74
2021/12/31 04:37:25;;;;;;;;;;;;;;;12.50;97.08;101760.78;4982616;28;19982;-74
2021/12/31 04:39:50;;;;;;;;;;;;;;;12.50;96.77;101760.78;4984047;28;19957;-74
2021/12/31 04:42:16;;;;;;;;;;;;;;;12.53;97.11;101750.56;4984361;28;20475;-74
2021/12/31 04:44:41;;;;;;;;;;;;;;;12.54;97.01;101749.72;4985002;28;19922;-74
2021/12/31 04:47:09;;;;;;;;;;;;;;;12.66;96.55;101751.84;4984286;28;19969;-72
2021/12/31 04:49:34;;;;;;;;;;;;;;;12.63;96.03;101750.06;4984045;28;19930;-75
2021/12/31 04:52:00;;;;;;;;;;;;;;;12.64;96.17;101749.22;4982108;28;20029;-75
2021/12/31 04:54:25;;;;;;;;;;;;;;;12.58;96.46;101751.59;4982309;28;19930;-73
2021/12/31 04:56:53;;;;;;;;;;;;;;;12.52;96.80;101749.69;4984541;28;20368;-73
2021/12/31 04:59:19;;;;;;;;;;;;;;;12.58;96.26;101755.03;4983515;28;19926;-74
2021/12/31 05:01:44;;;;;;;;;;;;;;;12.49;96.54;101761.59;4994569;28;19984;-74
2021/12/31 05:04:09;;;;;;;;;;;;;;;12.49;96.92;101757.28;4983872;28;19922;-74
2021/12/31 05:06:34;;;;;;;;;;;;;;;12.53;96.46;101761.75;4976747;28;20671;-75
2021/12/31 05:09:00;;;;;;;;;;;;;;;12.52;96.50;101762.56;4981268;28;19922;-74
2021/12/31 05:11:25;;;;;;;;;;;;;;;12.46;96.72;101758.91;4982363;28;19976;-73
2021/12/31 05:13:52;;;;;;;;;;;;;;;12.66;95.27;101760.47;4985295;28;20186;-74
2021/12/31 05:16:18;;;;;;;;;;;;;;;12.55;96.07;101769.53;4988152;28;20430;-74
2021/12/31 05:18:43;;;;;;;;;;;;;;;12.63;95.36;101762.06;4986968;28;19933;-74
2021/12/31 05:21:08;;;;;;;;;;;;;;;12.60;95.07;101749.94;4986257;28;20020;-74
2021/12/31 05:23:33;;;;;;;;;;;;;;;12.58;95.53;101754.19;4985448;28;19929;-75
2021/12/31 05:25:58;;;;;;;;;;;;;;;12.53;95.70;101750.56;4987233;28;20285;-75
2021/12/31 05:28:24;;;;;;;;;;;;;;;12.64;94.85;101748.34;4985879;28;19930;-75
2021/12/31 05:30:49;;;;;;;;;;;;;;;12.49;95.84;101746.97;4987743;28;19925;-75
2021/12/31 05:33:14;;;;;;;;;;;;;;;12.62;94.86;101745.72;4986535;28;20304;-75
2021/12/31 05:35:40;;;;;;;;;;;;;;;12.49;95.51;101735.78;4986721;28;19976;-74
2021/12/31 05:38:05;;;;;;;;;;;;;;;12.54;94.87;101722.22;4984108;28;20300;-75
2021/12/31 05:40:30;;;;;;;;;;;;;;;12.59;94.65;101728.41;4981195;28;19969;-75
2021/12/31 05:42:55;;;;;;;;;;;;;;;12.57;94.45;101724.91;4986003;28;20071;-75
2021/12/31 05:45:21;;;;;;;;;;;;;;;12.41;95.23;101716.59;4987111;28;19922;-75
2021/12/31 05:47:48;;;;;;;;;;;;;;;12.32;95.49;101710.31;4987368;28;19921;-75
2021/12/31 05:50:27;;;;;;;;;;;;;;;12.37;94.94;101702.72;4987236;28;19925;-75
2021/12/31 05:52:54;;;;;;;;;;;;;;;12.20;95.38;101706.44;4985034;28;19922;-74
2021/12/31 05:55:19;;;;;;;;;;;;;;;12.17;95.42;101711.47;4985012;28;19980;-74
2021/12/31 05:57:44;;;;;;;;;;;;;;;11.99;96.14;101716.84;4984510;28;22031;-73
2021/12/31 06:00:10;;;;;;;;;;;;;;;11.97;95.70;101719.38;4987358;28;20305;-73
2021/12/31 06:02:35;;;;;;;;;;;;;;;11.84;96.55;101724.06;4983452;28;19996;-73
2021/12/31 06:05:00;;;;;;;;;;;;;;;11.83;96.34;101723.19;4987770;28;20415;-75
2021/12/31 06:07:25;;;;;;;;;;;;;;;11.90;96.10;101727.72;4983129;28;19956;-73
2021/12/31 06:09:51;;;;;;;;;;;;;;;11.68;97.05;101717.41;4984093;28;20056;-73
2021/12/31 06:12:16;;;;;;;;;;;;;;;11.67;96.82;101721.69;4986038;28;19933;-73
2021/12/31 06:14:41;;;;;;;;;;;;;;;11.84;96.42;101724.06;4981831;28;20384;-74
2021/12/31 06:17:08;;;;;;;;;;;;;;;11.58;97.16;101734.19;4984360;28;20416;-74
2021/12/31 06:19:38;;;;;;;;;;;;;;;11.68;96.67;101745.75;4985559;28;19941;-74
2021/12/31 06:22:04;;;;;;;;;;;;;;;11.53;97.39;101744.34;4985868;28;20550;-75
2021/12/31 06:24:29;;;;;;;;;;;;;;;11.48;97.82;101750.16;4983339;28;19926;-74
2021/12/31 06:26:55;;;;;;;;;;;;;;;11.51;97.48;101753.69;4986656;28;19933;-74
2021/12/31 06:29:20;;;;;;;;;;;;;;;11.46;97.69;101749.19;4984994;28;19929;-72
2021/12/31 06:31:45;;;;;;;;;;;;;;;11.46;97.52;101742.34;4988542;28;20021;-73
2021/12/31 06:34:10;;;;;;;;;;;;;;;11.49;97.61;101728.72;4984607;28;20660;-76
2021/12/31 06:36:36;;;;;;;;;;;;;;;11.40;97.66;101739.53;4983660;28;19953;-73
2021/12/31 06:39:03;;;;;;;;;;;;;;;11.34;98.09;101744.44;4986044;28;19929;-73
2021/12/31 06:41:28;;;;;;;;;;;;;;;11.25;98.40;101737.25;4984081;28;20408;-73
2021/12/31 06:43:54;;;;;;;;;;;;;;;11.27;98.43;101743.31;4986950;28;19930;-74
2021/12/31 06:46:20;;;;;;;;;;;;;;;11.18;99.11;101740.41;4983446;28;20368;-73
2021/12/31 06:48:46;;;;;;;;;;;;;;;11.15;98.81;101742.84;4979958;28;19936;-75
2021/12/31 06:51:11;;;;;;;;;;;;;;;11.21;98.50;101748.25;4982033;28;20020;-73
2021/12/31 06:53:36;;;;;;;;;;;;;;;11.16;98.78;101741.16;4986246;28;19950;-73
2021/12/31 06:56:01;;;;;;;;;;;;;;;11.37;97.78;101742.00;4984548;28;19925;-74
2021/12/31 06:58:27;;;;;;;;;;;;;;;11.18;98.37;101752.41;4985593;28;20360;-73
2021/12/31 07:00:52;;;;;;;;;;;;;;;11.05;99.26;101753.63;4982207;28;20311;-73
2021/12/31 07:03:17;;;;;;;;;;;;;;;11.11;98.80;101748.72;4986144;28;19921;-74
2021/12/31 07:05:43;;;;;;;;;;;;;;;11.03;98.98;101755.22;4963114;28;19930;-74
2021/12/31 07:08:09;;;;;;;;;;;;;;;10.92;99.40;101759.06;4985387;28;20343;-73
2021/12/31 07:10:34;;;;;;;;;;;;;;;10.85;99.90;101764.78;4986001;28;20493;-74
2021/12/31 07:13:00;;;;;;;;;;;;;;;10.87;99.73;101755.44;4986299;28;19988;-74
2021/12/31 07:15:26;;;;;;;;;;;;;;;10.89;99.85;101764.09;4984340;28;20288;-74
2021/12/31 07:17:52;;;;;;;;;;;;;;;10.87;99.91;101753.75;4984912;28;19922;-73
2021/12/31 07:20:17;;;;;;;;;;;;;;;10.85;99.85;101760.50;4985776;28;19922;-74
2021/12/31 07:22:42;;;;;;;;;;;;;;;10.90;99.74;101752.97;4984386;28;19933;-75
2021/12/31 07:25:08;;;;;;;;;;;;;;;10.98;99.08;101759.31;4984440;28;20407;-75
2021/12/31 07:27:33;;;;;;;;;;;;;;;10.95;99.30;101764.34;4983679;28;19926;-73
2021/12/31 07:29:59;;;;;;;;;;;;;;;10.87;99.80;101765.72;4983651;28;20416;-74
2021/12/31 07:32:24;;;;;;;;;;;;;;;10.94;99.35;101767.75;4982244;28;19984;-74
2021/12/31 07:34:49;;;;;;;;;;;;;;;10.92;99.40;101759.06;4984168;28;19957;-74
2021/12/31 07:37:15;;;;;;;;;;;;;;;10.93;99.32;101758.28;4985065;28;20373;-75
2021/12/31 07:39:46;;;;;;;;;;;;;;;10.94;99.28;101767.75;4982122;28;20024;-74
2021/12/31 07:42:11;;;;;;;;;;;;;;;10.92;99.22;101772.84;4984966;28;19980;-74
2021/12/31 07:44:37;;;;;;;;;;;;;;;10.89;99.27;101764.09;4983984;28;19926;-74
2021/12/31 07:47:03;;;;;;;;;;;;;;;10.97;99.09;101755.84;4982190;28;19930;-74
2021/12/31 07:49:28;;;;;;;;;;;;;;;11.02;98.61;101766.34;4979692;28;20352;-74
2021/12/31 07:51:54;;;;;;;;;;;;;;;11.01;98.04;101764.59;4982930;28;19988;-73
2021/12/31 07:54:19;;;;;;;;;;;;;;;10.96;98.64;101773.81;4983805;28;19926;-70
2021/12/31 07:56:44;;;;;;;;;;;;;;;10.91;98.56;101772.75;4981529;28;19930;-71
2021/12/31 07:59:10;;;;;;;;;;;;;;;11.01;98.02;101764.59;4983727;28;19937;-71
2021/12/31 08:01:35;;;;;;;;;;;;;;;11.00;98.09;101766.28;4984418;28;19918;-71
2021/12/31 08:04:01;;;;;;;;;;;;;;;10.97;98.22;101770.41;4988996;28;19922;-70
2021/12/31 08:06:26;;;;;;;;;;;;;;;11.02;98.24;101780.09;4990820;28;19930;-70
2021/12/31 08:08:52;;;;;;;;;;;;;;;10.93;98.29;101786.56;4988629;28;19930;-72
2021/12/31 08:11:17;;;;;;;;;;;;;;;10.90;98.63;101778.72;4986952;28;19945;-70
2021/12/31 08:13:42;;;;;;;;;;;;;;;10.98;98.44;101774.75;4984883;28;19932;-70
2021/12/31 08:16:07;;;;;;;;;;;;;;;11.09;97.30;101772.63;4983963;28;19922;-70
2021/12/31 08:18:33;;;;;;;;;;;;;;;10.96;98.04;101774.69;4984594;28;20397;-71
2021/12/31 08:20:58;;;;;;;;;;;;;;;11.05;97.92;101775.91;4986684;28;19925;-71
2021/12/31 08:23:23;;;;;;;;;;;;;;;11.19;96.89;101775.63;4989439;28;19956;-71
2021/12/31 08:25:49;;;;;;;;;;;;;;;11.07;97.34;101784.56;4984635;28;20293;-72
2021/12/31 08:28:14;;;;;;;;;;;;;;;11.09;96.91;101773.50;4987425;28;20020;-72
2021/12/31 08:30:39;;;;;;;;;;;;;;;11.10;96.60;101764.06;4989698;28;19918;-71
2021/12/31 08:33:05;;;;;;;;;;;;;;;11.14;97.04;101765.97;4984581;28;20320;-71
2021/12/31 08:35:30;;;;;;;;;;;;;;;11.18;96.80;101773.88;4985262;28;20331;-72
2021/12/31 08:37:56;;;;;;;;;;;;;;;11.27;95.97;101776.81;4988047;28;20331;-71
2021/12/31 08:40:21;;;;;;;;;;;;;;;11.18;96.20;101761.00;4989550;28;19933;-71
2021/12/31 08:42:47;;;;;;;;;;;;;;;11.20;96.00;101773.94;4988911;28;20366;-74
2021/12/31 08:45:12;;;;;;;;;;;;;;;11.26;95.59;101776.75;4989410;28;20681;-71
2021/12/31 08:47:38;;;;;;;;;;;;;;;11.29;95.32;101771.75;4989233;28;19917;-72
2021/12/31 08:50:03;;;;;;;;;;;;;;;11.44;94.19;101763.72;4989633;28;19921;-71
2021/12/31 08:52:28;;;;;;;;;;;;;;;11.54;93.37;101763.25;4996529;28;20604;-72
2021/12/31 08:54:54;;;;;;;;;;;;;;;11.59;92.75;101758.25;4992314;28;19928;-73
2021/12/31 08:57:19;;;;;;;;;;;;;;;11.63;92.46;101749.84;4994257;28;19936;-72
2021/12/31 08:59:44;;;;;;;;;;;;;;;11.67;93.12;101747.44;4992400;28;19936;-72
2021/12/31 09:02:11;;;;;;;;;;;;;;;11.65;93.20;101743.94;4991711;28;19921;-71
2021/12/31 09:04:36;;;;;;;;;;;;;;;11.75;93.34;101747.72;4993887;28;20284;-70
2021/12/31 09:07:02;;;;;;;;;;;;;;;11.74;92.58;101741.69;4993542;28;19918;-70
2021/12/31 09:09:27;;;;;;;;;;;;;;;11.84;92.50;101740.38;4992519;28;20363;-70
2021/12/31 09:11:54;;;;;;;;;;;;;;;11.95;91.52;101740.75;4990864;28;19922;-71
2021/12/31 09:14:20;;;;;;;;;;;;;;;11.90;90.52;101753.50;4991835;28;19929;-72
2021/12/31 09:16:45;;;;;;;;;;;;;;;12.08;90.52;101753.28;4994200;28;20277;-69
2021/12/31 09:19:11;;;;;;;;;;;;;;;12.10;89.87;101756.78;4990700;28;19933;-70
2021/12/31 09:21:36;;;;;;;;;;;;;;;12.18;89.81;101755.34;4990428;28;19975;-71
2021/12/31 09:24:01;;;;;;;;;;;;;;;12.17;89.49;101758.75;4990447;28;20052;-71
2021/12/31 09:26:27;;;;;;;;;;;;;;;12.21;90.17;101757.19;4991160;28;19922;-73
2021/12/31 09:28:52;;;;;;;;;;;;;;;12.39;88.76;101759.53;4984314;28;20020;-70
2021/12/31 09:31:17;;;;;;;;;;;;;;;12.68;89.31;101761.41;4990595;28;20273;-71
2021/12/31 09:33:42;;;;;;;;;;;;;;;13.04;88.21;101763.41;4995427;28;19933;-70
2021/12/31 09:36:08;;;;;;;;;;;;;;;13.31;87.15;101761.75;4990849;28;19921;-71
2021/12/31 09:38:33;;;;;;;;;;;;;;;13.49;86.27;101770.91;4990702;28;20308;-71
2021/12/31 09:40:59;;;;;;;;;;;;;;;13.32;86.21;101784.19;4993055;28;19926;-70
2021/12/31 09:43:24;;;;;;;;;;;;;;;13.04;86.67;101782.41;4989438;28;19930;-71
2021/12/31 09:45:52;;;;;;;;;;;;;;;12.84;86.92;101776.56;4991101;28;20108;-72
2021/12/31 09:48:18;;;;;;;;;;;;;;;12.64;85.68;101781.88;4990061;28;19926;-70
2021/12/31 09:50:45;;;;;;;;;;;;;;;12.61;86.79;101799.00;4994921;28;19914;-69
2021/12/31 09:53:11;;;;;;;;;;;;;;;12.66;86.69;101796.59;4990577;28;19921;-69
2021/12/31 09:55:55;;;;;;;;;;;;;;;12.62;86.60;101799.91;4991558;28;20012;-69
2021/12/31 09:58:25;;;;;;;;;;;;;;;12.59;86.72;101807.53;4991110;28;19918;-69
2021/12/31 10:00:52;;;;;;;;;;;;;;;12.59;86.89;101804.94;4992566;28;20004;-71
2021/12/31 10:03:19;;;;;;;;;;;;;;;12.57;86.55;101806.59;4989991;28;19924;-69
2021/12/31 10:05:46;;;;;;;;;;;;;;;12.54;86.78;101789.31;4991822;28;20398;-70
2021/12/31 10:08:15;;;;;;;;;;;;;;;12.53;87.45;101781.50;4991636;28;19961;-70
2021/12/31 10:10:41;;;;;;;;;;;;;;;12.40;87.58;101798.25;4992145;28;20365;-70
2021/12/31 10:13:07;;;;;;;;;;;;;;;12.38;88.13;101814.50;4991082;28;19944;-73
2021/12/31 10:15:37;;;;;;;;;;;;;;;12.25;88.57;101805.44;4995308;28;20004;-71
2021/12/31 10:18:08;;;;;;;;;;;;;;;12.21;88.75;101789.00;4993441;28;19922;-71
2021/12/31 10:20:46;;;;;;;;;;;;;;;12.23;88.41;101794.19;4991840;28;19933;-70
2021/12/31 10:23:12;;;;;;;;;;;;;;;12.12;89.10;101786.06;4994745;28;19917;-72
2021/12/31 10:25:39;;;;;;;;;;;;;;;12.07;89.45;101775.63;4991587;28;19925;-70
2021/12/31 10:28:09;;;;;;;;;;;;;;;12.09;89.49;101785.97;4989405;28;20384;-71
2021/12/31 10:30:34;;;;;;;;;;;;;;;12.12;89.90;101765.44;4989018;28;19922;-70
2021/12/31 10:32:59;;;;;;;;;;;;;;;12.14;89.62;101771.56;4989899;28;19918;-74
2021/12/31 10:35:24;;;;;;;;;;;;;;;12.31;89.15;101782.44;4989097;28;19929;-70
2021/12/31 10:37:53;;;;;;;;;;;;;;;12.40;88.88;101781.91;4991199;28;19953;-71
2021/12/31 10:40:39;;;;;;;;;;;;;;;12.50;89.30;101789.16;4988716;28;19961;-72
2021/12/31 10:43:10;;;;;;;;;;;;;;;12.56;88.74;101777.34;4983860;28;19944;-70
2021/12/31 10:45:36;;;;;;;;;;;;;;;12.58;87.40;101793.75;4985251;28;19922;-70
2021/12/31 10:48:06;;;;;;;;;;;;;;;12.57;87.04;101799.75;4990848;28;19914;-68
2021/12/31 10:50:32;;;;;;;;;;;;;;;12.48;88.24;101809.72;4988376;28;20266;-70
2021/12/31 10:55:27;;;;;;;;;;;;;;;12.42;88.29;101803.47;4990303;28;20365;-70
2021/12/31 10:57:53;;;;;;;;;;;;;;;12.47;88.44;101807.09;4988532;28;19932;-70
2021/12/31 11:00:20;;;;;;;;;;;;;;;12.51;88.60;101808.97;4986581;28;19921;-70
2021/12/31 11:02:47;;;;;;;;;;;;;;;12.58;87.97;101788.59;4985910;28;19980;-71
2021/12/31 11:05:13;;;;;;;;;;;;;;;13.13;87.13;101780.09;4987638;28;20530;-71
2021/12/31 11:07:39;;;;;;;;;;;;;;;13.81;85.16;101782.22;4989315;28;19945;-68
2021/12/31 11:10:05;;;;;;;;;;;;;;;14.19;83.62;101775.53;4984930;28;20289;-70
2021/12/31 11:12:31;;;;;;;;;;;;;;;14.18;83.21;101773.78;4990857;28;19961;-72
2021/12/31 11:14:57;;;;;;;;;;;;;;;14.20;83.76;101751.44;4989947;28;19968;-68
2021/12/31 11:17:23;;;;;;;;;;;;;;;14.37;80.46;101750.16;4990966;28;20355;-68
2021/12/31 11:19:49;;;;;;;;;;;;;;;14.90;81.01;101752.41;4988207;28;20446;-70
2021/12/31 11:22:15;;;;;;;;;;;;;;;14.92;79.27;101732.59;4987279;28;19922;-70
2021/12/31 11:24:41;;;;;;;;;;;;;;;14.73;78.51;101736.44;4986271;28;19993;-70
2021/12/31 11:27:25;;;;;;;;;;;;;;;14.46;80.33;101721.09;4985931;28;20028;-72
2021/12/31 11:29:50;;;;;;;;;;;;;;;14.20;80.55;101710.94;4983292;28;20364;-70
2021/12/31 11:32:15;;;;;;;;;;;;;;;14.09;81.02;101701.13;4988158;28;20400;-70
2021/12/31 11:34:41;;;;;;;;;;;;;;;13.99;81.06;101705.16;4993720;28;19941;-69
2021/12/31 11:37:06;;;;;;;;;;;;;;;13.87;81.70;101713.44;4989916;28;20403;-69
2021/12/31 11:39:35;;;;;;;;;;;;;;;13.79;82.08;101707.22;4986865;28;19921;-70
2021/12/31 11:42:04;;;;;;;;;;;;;;;13.79;81.78;101701.16;4987341;28;19924;-70
2021/12/31 11:44:30;;;;;;;;;;;;;;;13.79;81.96;101702.03;4989115;28;20353;-68
2021/12/31 11:47:13;;;;;;;;;;;;;;;13.76;82.42;101704.50;4986953;28;19930;-70
2021/12/31 11:49:38;;;;;;;;;;;;;;;13.66;83.16;101708.56;4987644;28;19925;-71
2021/12/31 11:52:08;;;;;;;;;;;;;;;13.69;82.40;101724.16;4989641;28;20612;-68
2021/12/31 11:54:38;;;;;;;;;;;;;;;13.63;83.11;101723.09;4985812;28;19922;-71
2021/12/31 11:57:10;;;;;;;;;;;;;;;13.68;83.60;101734.44;4991663;28;19917;-70
2021/12/31 11:59:37;;;;;;;;;;;;;;;13.87;82.08;101736.72;4988151;28;19929;-69
2021/12/31 12:02:05;;;;;;;;;;;;;;;13.96;81.67;101730.97;4987535;28;19917;-69
2021/12/31 12:04:33;;;;;;;;;;;;;;;14.11;81.87;101712.38;4988797;28;20076;-68
2021/12/31 12:07:02;;;;;;;;;;;;;;;14.26;80.94;101712.81;4989282;28;19926;-69
2021/12/31 12:09:34;;;;;;;;;;;;;;;14.47;81.45;101718.56;4988017;28;19918;-68
2021/12/31 12:11:59;;;;;;;;;;;;;;;14.70;80.60;101710.50;4987622;28;19961;-69
2021/12/31 12:14:37;;;;;;;;;;;;;;;14.79;78.43;101699.47;4988707;28;19964;-69
2021/12/31 12:17:03;;;;;;;;;;;;;;;14.80;78.90;101706.41;4987551;28;20284;-70
2021/12/31 12:19:47;;;;;;;;;;;;;;;14.65;78.01;101694.84;4988194;28;19937;-68
2021/12/31 12:22:26;;;;;;;;;;;;;;;14.49;79.86;101693.59;4986602;28;19925;-69
2021/12/31 12:24:52;;;;;;;;;;;;;;;14.42;80.37;101695.94;4986604;28;19925;-70
2021/12/31 12:27:21;;;;;;;;;;;;;;;14.20;79.92;101703.19;4988616;28;19937;-68
2021/12/31 12:29:47;;;;;;;;;;;;;;;14.12;80.97;101706.38;4990701;28;19922;-70
2021/12/31 12:32:13;;;;;;;;;;;;;;;14.12;80.92;101717.59;4996145;28;19921;-69
2021/12/31 12:34:38;;;;;;;;;;;;;;;14.11;82.30;101725.31;4993269;28;19921;-69
2021/12/31 12:37:04;;;;;;;;;;;;;;;14.08;81.67;101740.75;4998977;28;19975;-70